»·PEaware :: SWA2918 KPHX-KBUR

SWA2918 :: KPHX-KBUR

FLIGHT INFORMATION

Flight Status: Arrived
Operator:
Southwest Airlines
More flights by this operator :: More flights under this callsign
Pilot: Jaron C. (17187)
Aircraft: BOEING 737-800
(B738)
More flights by this aircraft type
Origin: KPHX Phoenix Sky Harbor Intl
United States
Destination: KBUR Bob Hope-Burbank
United States
More flights between these airports :: More routes between these airports
Route: +MAYSA5 JKPOT EED JANNY3
File this flight plan on PilotEdge
Remarks:
Altitude:
(Current/Filed)
36,000ft
Speed:
(Current/Filed)
415kts
Departed: 15-Apr-18 05:52 PM
Arrived: 15-Apr-18 07:06 PM
Distance/Time
Traveled:
319nm/1:14
Distance/Time
To Go:
Arrived

Flight Plot

Page will automatically refresh every two minutes.

Flight plan parsing failed; only flown route is shown


Map Options




Map Legend


Flown Route
Filed Route
Departure Airport
Arrival Airport
Navaid (VOR, NDB)
Fix

Horizontal Profiles

Position Reports

Time Latitude Longitude Heading Altitude Ground
Speed
15-Apr-18 17:22 33.433654 -111.996192 315 1139ft 0kts
15-Apr-18 17:23 33.433654 -111.996192 315 1139ft 0kts
15-Apr-18 17:24 33.433654 -111.996192 315 1139ft 0kts
15-Apr-18 17:25 33.433654 -111.996192 315 1139ft 0kts
15-Apr-18 17:26 33.433654 -111.996192 315 1139ft 0kts
15-Apr-18 17:27 33.433654 -111.996192 315 1139ft 0kts
15-Apr-18 17:28 33.433654 -111.996192 315 1139ft 0kts
15-Apr-18 17:29 33.433654 -111.996192 315 1139ft 0kts
15-Apr-18 17:30 33.433654 -111.996192 315 1139ft 0kts
15-Apr-18 17:31 33.433654 -111.996192 315 1139ft 0kts
15-Apr-18 17:32 33.433654 -111.996192 315 1139ft 0kts
15-Apr-18 17:33 33.433654 -111.996192 315 1139ft 0kts
15-Apr-18 17:34 33.433654 -111.996192 315 1139ft 0kts
15-Apr-18 17:35 33.433654 -111.996192 315 1139ft 0kts
15-Apr-18 17:36 33.433654 -111.996192 315 1139ft 0kts
15-Apr-18 17:37 33.433654 -111.996192 315 1139ft 0kts
15-Apr-18 17:38 33.433654 -111.996192 315 1139ft 0kts
15-Apr-18 17:39 33.433654 -111.996192 315 1139ft 0kts
15-Apr-18 17:40 33.433654 -111.996192 315 1139ft 0kts
15-Apr-18 17:41 33.433654 -111.996192 315 1139ft 0kts
15-Apr-18 17:42 33.433654 -111.996192 315 1139ft 0kts
15-Apr-18 17:43 33.433654 -111.996192 315 1139ft 0kts
15-Apr-18 17:44 33.433615 -111.996146 315 1139ft 2kts
15-Apr-18 17:45 33.433660 -111.995740 175 1139ft 1kts
15-Apr-18 17:46 33.433702 -111.995742 180 1139ft 0kts
15-Apr-18 17:47 33.433702 -111.995742 180 1139ft 0kts
15-Apr-18 17:48 33.433368 -111.995755 182 1139ft 0kts
15-Apr-18 17:49 33.433278 -111.995758 179 1139ft 4kts
15-Apr-18 17:50 33.431846 -111.993489 160 1139ft 9kts
15-Apr-18 17:51 33.431018 -112.004153 270 1139ft 131kts
15-Apr-18 17:52 33.431741 -112.064361 286 3071ft 219kts
15-Apr-18 17:53 33.477465 -112.120949 318 5892ft 253kts
15-Apr-18 17:54 33.534928 -112.179390 331 8981ft 286kts
15-Apr-18 17:55 33.615419 -112.204047 342 11582ft 330kts
15-Apr-18 17:56 33.706381 -112.232025 340 14727ft 345kts
15-Apr-18 17:57 33.799969 -112.261820 339 17674ft 357kts
15-Apr-18 17:58 33.896603 -112.292841 338 20289ft 367kts
15-Apr-18 17:59 33.996423 -112.325114 338 22562ft 379kts
15-Apr-18 18:00 34.083075 -112.388810 313 24612ft 370kts
15-Apr-18 18:01 34.162851 -112.469177 310 26329ft 384kts
15-Apr-18 18:02 34.245914 -112.553086 310 28000ft 394kts
15-Apr-18 18:03 34.330992 -112.639258 309 29562ft 402kts
15-Apr-18 18:04 34.415476 -112.724914 308 31525ft 396kts
15-Apr-18 18:05 34.499142 -112.809961 307 33318ft 390kts
15-Apr-18 18:06 34.581285 -112.893741 307 34809ft 385kts
15-Apr-18 18:07 34.662678 -112.977145 307 36044ft 383kts
15-Apr-18 18:08 34.731200 -113.073963 276 36099ft 372kts
15-Apr-18 18:09 34.708711 -113.191524 247 36071ft 379kts
15-Apr-18 18:10 34.705926 -113.322206 268 36073ft 394kts
15-Apr-18 18:11 34.713461 -113.454860 268 35981ft 394kts
15-Apr-18 18:12 34.720880 -113.588084 268 35986ft 395kts
15-Apr-18 18:13 34.728109 -113.720089 267 36001ft 394kts
15-Apr-18 18:14 34.735060 -113.852984 267 35999ft 395kts
15-Apr-18 18:15 34.741962 -113.986449 267 35991ft 393kts
15-Apr-18 18:16 34.748704 -114.119148 267 35885ft 394kts
15-Apr-18 18:17 34.755311 -114.251863 267 35885ft 394kts
15-Apr-18 18:18 34.761812 -114.385070 267 35883ft 394kts
15-Apr-18 18:19 34.767403 -114.517868 266 35880ft 393kts
15-Apr-18 18:20 34.770510 -114.650081 265 35878ft 393kts
15-Apr-18 18:21 34.773174 -114.776647 265 35893ft 393kts
15-Apr-18 18:22 34.775840 -114.909480 265 35892ft 392kts
15-Apr-18 18:23 34.778395 -115.042170 265 35888ft 393kts
15-Apr-18 18:24 34.780844 -115.174969 265 35886ft 393kts
15-Apr-18 18:25 34.783166 -115.307870 265 35883ft 393kts
15-Apr-18 18:26 34.785367 -115.440637 265 35880ft 391kts
15-Apr-18 18:27 34.787491 -115.565890 265 35044ft 359kts
15-Apr-18 18:28 34.789230 -115.688782 264 32537ft 372kts
15-Apr-18 18:29 34.790768 -115.813821 265 30550ft 370kts
15-Apr-18 18:30 34.793055 -115.937917 265 28813ft 358kts
15-Apr-18 18:31 34.795219 -116.058768 265 26883ft 354kts
15-Apr-18 18:32 34.797308 -116.176451 266 24938ft 344kts
15-Apr-18 18:33 34.797531 -116.285055 263 23772ft 337kts
15-Apr-18 18:34 34.793655 -116.398771 263 23405ft 337kts
15-Apr-18 18:35 34.789669 -116.512450 263 23045ft 335kts
15-Apr-18 18:36 34.782192 -116.625283 259 22437ft 332kts
15-Apr-18 18:37 34.771194 -116.735138 259 21709ft 329kts
15-Apr-18 18:38 34.760195 -116.845288 259 20944ft 327kts
15-Apr-18 18:39 34.748924 -116.955971 260 20177ft 332kts
15-Apr-18 18:40 34.737810 -117.064910 259 19442ft 323kts
15-Apr-18 18:41 34.726798 -117.171754 259 18683ft 318kts
15-Apr-18 18:42 34.715750 -117.278263 259 18000ft 316kts
15-Apr-18 18:43 34.704680 -117.384088 260 17281ft 315kts
15-Apr-18 18:44 34.693566 -117.489640 260 16545ft 314kts
15-Apr-18 18:45 34.682464 -117.594340 260 15823ft 312kts
15-Apr-18 18:46 34.671671 -117.696031 260 15114ft 311kts
15-Apr-18 18:47 34.660713 -117.798426 260 14401ft 310kts
15-Apr-18 18:48 34.649655 -117.900498 260 13511ft 308kts
15-Apr-18 18:49 34.638416 -118.002856 261 12270ft 309kts
15-Apr-18 18:50 34.624739 -118.102060 254 11100ft 302kts
15-Apr-18 18:51 34.604062 -118.193318 252 9977ft 259kts
15-Apr-18 18:52 34.585384 -118.275739 252 8966ft 248kts
15-Apr-18 18:53 34.567134 -118.356361 252 8001ft 250kts
15-Apr-18 18:54 34.543905 -118.438154 228 7924ft 254kts
15-Apr-18 18:55 34.487091 -118.484783 213 7280ft 248kts
15-Apr-18 18:56 34.429470 -118.528556 213 6648ft 245kts
15-Apr-18 18:57 34.371385 -118.573146 212 6057ft 263kts
15-Apr-18 18:58 34.303765 -118.592744 187 5618ft 261kts
15-Apr-18 18:59 34.239161 -118.605365 189 4375ft 207kts
15-Apr-18 19:00 34.202059 -118.575713 96 4059ft 191kts
15-Apr-18 19:01 34.199727 -118.512138 93 3733ft 188kts
15-Apr-18 19:02 34.198882 -118.451898 92 2207ft 165kts
15-Apr-18 19:03 34.198289 -118.401713 92 1351ft 144kts
15-Apr-18 19:04 34.197756 -118.357020 91 784ft 60kts
15-Apr-18 19:05 34.197245 -118.350291 213 784ft 1kts
15-Apr-18 19:06 34.196882 -118.351966 185 784ft 3kts
15-Apr-18 19:07 34.196846 -118.351968 182 784ft 0kts
15-Apr-18 19:08 34.196846 -118.351968 182 784ft 0kts
15-Apr-18 19:09 34.196846 -118.351968 182 784ft 0kts
15-Apr-18 19:10 34.196846 -118.351968 182 784ft 0kts

Navigation Log

Ident Type
Flight plan parsing failed, navigation log unavailable